Aérodrome :
LOGIN :

S'inscrire | Disclaimer

   EN    FR    IT 

 










Légende :    VFR   VFR Marginal   IFR   IFR Intensif   IFR Très Intensif
Visi : 
Plafond : 
>= 8 km
>= 3000ft
5 à 8 km
1000 à 3000 ft
1500m à 5 km
500 à 1000 ft
800 à 1500m
200 à 500 ft
< 800m
< 200 ft
Symboles :   Orages  Brouillard  Fortes neiges  Fortes précipitations  Vent > 20 kt
SIGMETs :   Divers  Orages  Givrage  Turbulence  Onde Orograph.  Cendres Volcan.






- Altitude de l'aérodrome : 1300 ft
- Code IATA : LIG


LFBL - Limoges

DERNIER METAR :
  • 211600Z AUTO 25012KT 220V290 9999 BKN020/// OVC028/// ///CB 15/11 Q1011 TEMPO 27015G25KT 1000 -TSRA BKN005 BKN015TCU

METARs EXPIRÉS :
  • 211530Z AUTO 24011KT 210V270 9999 BKN016 OVC021 15/11 Q1011 TEMPO 27015G25KT 1000 -TSRA BKN015CB
  • 211500Z AUTO 24013KT 200V270 9999 BKN014 BKN019 OVC074 15/12 Q1011 TEMPO 27015G25KT 1000 -TSRA BKN015CB
  • 211430Z AUTO 26010KT 230V300 9999 BKN015/// BKN020/// BKN037/// ///CB 14/11 Q1011 TEMPO 27015G25KT 1000 -TSRA BKN005 BKN015TCU
  • 211400Z AUTO 23011KT 200V280 9999 BKN012/// BKN018/// OVC024/// ///CB 14/12 Q1011 TEMPO 27015G25KT 1000 -TSRA BKN015CB
  • 211330Z AUTO 23013KT 200V270 9999 BKN016/// OVC027/// ///TCU 14/11 Q1011 TEMPO 27015G25KT 1000 -TSRA BKN015CB
  • 211300Z AUTO 23012KT 9999 BKN012/// BKN017/// OVC066/// //////TCU 15/12 Q1010 TEMPO 27015G25KT 1000 -TSRA BKN015CB
  • 211230Z AUTO 23011KT 210V270 9999 BKN010/// BKN017/// OVC022/// ///TCU 14/13 Q1010 TEMPO 27015G25KT 1000 -TSRA BKN015CB
  • 211200Z AUTO 23012KT 200V260 9999 RA OVC008/// ///CB 13/12 Q1010 TEMPO 27015G25KT 1000 -TSRA BKN015CB
  • 211130Z AUTO 24010KT 200V270 9999 4100 BKN006/// OVC012/// //////CB 14/13 Q1010 TEMPO 27015G25KT 3000 RA

TAF TAF LFBL
Valide du 21 à 12h jusqu'au 22 à 12h UTC


211100Z 2112/2212 25010KT 9999 BKN015
TEMPO 2112/2118 27015G25KT 3000 SHRA BKN005 BKN015TCU
PROB30
TEMPO 2112/2118 1000 -TSRA BKN015CB
TEMPO 2118/2123 3000 SHRA BKN005 BKN015TCU
TEMPO 2123/2206 2000 SHRA BKN002 BKN010TCU
PROB40
TEMPO 2203/2206 0800 FG VV///
TEMPO 2206/2212 3000 SHRA BKN005 BKN015TCU
ATIS : +33 5 55 48 40 37



MET'MAP, la Météo Aéronautique d'un coup d'oeil ! - Copyright ORBIFLY Décembre 2007 - Disclaimer

ORBIFLY MET'MAP TEAM :

Programmation & Développement : Alexandra Zaïnal
Sur une idée originale de : Baudouin d'Aumeries
Soutien technique & logistique : Manuel Goepfert
Assistance : Marc-Olivier Méhu




SOURCES & CREDITS :

   NOAA